Lake Worth, FL

2:01 PM EDT en Octubre 24, 2014 (GMT -0400)
D A N E T S | Change Station
CLOSE
Current Station
Estación meteorológica personal
Location: Lake Worth, FL
Altura: 25 ft
Estaciones meteorológicas cercanas

Alt 25 ft 26.61 °N, 80.17 °W | Updated 1 minute ago

Nublado
Nublado
76.4 ° F
Sensación térmica 78 ° F
N
7.0
Viento Variable Viento desde NE
Gusts 8.0 mph

Hoy
Alta -- | Baja -- ° F
--% Posibilidad de precipitaciones
Ayer
Alta -- | Baja -- ° F
Precip. -- pul
7:25 AM 6:44 PM
Luna nueva, 1% visible
Presión 29.87 pul
Visibilidad 10.0 Millas
Nubes Nubes dispersas 2800 ft
Nublado 4000 ft
Índice de calor 78 ° F
Punto de rocío 68 ° F
Humedad 74%
Precipitaciones 0.02 pul
Espesor de la nieve No disponible.
UV 1.6 de una escala de 12
Polen 2.30 de una escala de 12
Ozono Buena
PM2.5 Buena
Flu Activity Local Activity
METAR KPBI 241753Z 05015G19KT 10SM SCT028 OVC040 26/19 A2987 RMK AO2 SLP114 60000 T02610194 10261 20250 58017

More Conditions Fewer Conditions

Presión 29.87 pul
Visibilidad 10.0 Millas
Nubes Nubes dispersas 2800 ft
Nublado 4000 ft
Índice de calor 78 ° F
Punto de rocío 68 ° F
Humedad 74%
Precipitaciones 0.02 pul
Espesor de la nieve No disponible.
UV 1.6 de una escala de 12
Polen 2.30 de una escala de 12
Ozono Buena
PM2.5 Buena
Flu Activity Local Activity
METAR KPBI 241753Z 05015G19KT 10SM SCT028 OVC040 26/19 A2987 RMK AO2 SLP114 60000 T02610194 10261 20250 58017

More Conditions Fewer Conditions

10-Day Weather Forecast

Almanac

Astronomía

Oct. 24, 2014 Salida Puesta
Hora real 7:25 AM EDT 6:44 PM EDT
Crepúsculo civil 7:01 AM EDT 7:07 PM EDT
Crepúsculo náutico 6:34 AM EDT 7:35 PM EDT
Crepúsculo astronómico 6:07 AM EDT 8:01 PM EDT
Luna 7:59 AM EDT 7:27 PM EDT
Horas de luz 12h 06m
Horas de luz
11h 19m
Tomorrow will be 1m 25s shorter.
Luna nueva, 1% of the Moon is Illuminated
Hoy
Luna nueva
Oct 30
Cuarto creciente
Nov 6
Luna llena
Nov 14
Cuarto menguante
Nov 22
Nueva

Extremos de hoy

Máximos del estado Bajos del estado

Community

WunderPhotos

Upload Photos

1,764,628 ¡fotos cargadas!

Nearby

Calidad del aire

  Calidad del aire Índice AQ Contaminante
Ayer Buena
OZONE
Ayer Buena
PM2.5
Real Buena
OZONE
Real Buena
PM2.5
Viernes Buena
OZONE
Viernes Buena
PM2.5
Sábado Buena
OZONE
Sábado Buena
PM2.5
Domingo Buena
OZONE
Domingo Buena
PM2.5
Lunes Buena
OZONE
Lunes Buena
PM2.5

Grosos de nieve

Estación Profundido Altura
No tenemos constancia de nieve nueva.

Actividad de terremotos

Ciudad Distance Mag. Tiempo y dato
No hay informes recientes de la actividad sísmica.
Magnitud mínima muestra es 2,5.

Temperaturas de aguas costeras

Lugar Temperatura
Lake Worth, FL 79.0 ° F
Virginia Key, FL 80.1 ° F

Estaciones meteorológicas cercanas